sensor_id;sensor_type;location;lat;lon;timestamp;P1;durP1;ratioP1;P2;durP2;ratioP2
63807;SDS011;49961;43.970;22.868;2022-12-10T00:00:21;37.57;;;19.30;;
63807;SDS011;49961;43.970;22.868;2022-12-10T00:01:22;37.07;;;19.53;;
63807;SDS011;49961;43.970;22.868;2022-12-10T00:02:24;34.07;;;19.43;;
63807;SDS011;49961;43.970;22.868;2022-12-10T00:03:24;36.33;;;18.87;;
63807;SDS011;49961;43.970;22.868;2022-12-10T00:04:25;36.03;;;18.87;;
63807;SDS011;49961;43.970;22.868;2022-12-10T00:05:25;38.07;;;19.63;;
63807;SDS011;49961;43.970;22.868;2022-12-10T00:06:26;33.97;;;19.03;;
63807;SDS011;49961;43.970;22.868;2022-12-10T00:07:29;42.27;;;19.20;;
63807;SDS011;49961;43.970;22.868;2022-12-10T00:08:29;41.00;;;19.10;;
63807;SDS011;49961;43.970;22.868;2022-12-10T00:09:30;36.83;;;19.10;;
63807;SDS011;49961;43.970;22.868;2022-12-10T00:10:31;40.07;;;20.77;;
63807;SDS011;49961;43.970;22.868;2022-12-10T00:11:31;41.93;;;18.90;;
63807;SDS011;49961;43.970;22.868;2022-12-10T00:12:32;32.23;;;18.40;;
63807;SDS011;49961;43.970;22.868;2022-12-10T00:13:33;53.17;;;19.13;;
63807;SDS011;49961;43.970;22.868;2022-12-10T00:14:35;38.40;;;18.63;;
63807;SDS011;49961;43.970;22.868;2022-12-10T00:15:36;33.57;;;19.00;;
63807;SDS011;49961;43.970;22.868;2022-12-10T00:16:36;35.73;;;18.83;;
63807;SDS011;49961;43.970;22.868;2022-12-10T00:17:37;35.73;;;18.80;;
63807;SDS011;49961;43.970;22.868;2022-12-10T00:18:38;32.53;;;18.70;;
63807;SDS011;49961;43.970;22.868;2022-12-10T00:19:39;45.17;;;19.30;;
63807;SDS011;49961;43.970;22.868;2022-12-10T00:20:39;38.60;;;19.17;;
63807;SDS011;49961;43.970;22.868;2022-12-10T00:21:40;40.03;;;18.57;;
63807;SDS011;49961;43.970;22.868;2022-12-10T00:22:40;37.83;;;19.27;;
63807;SDS011;49961;43.970;22.868;2022-12-10T00:23:41;38.70;;;19.57;;
63807;SDS011;49961;43.970;22.868;2022-12-10T00:24:42;36.47;;;18.97;;
63807;SDS011;49961;43.970;22.868;2022-12-10T00:25:42;39.60;;;17.63;;
63807;SDS011;49961;43.970;22.868;2022-12-10T00:26:43;40.27;;;17.70;;
63807;SDS011;49961;43.970;22.868;2022-12-10T00:27:45;39.23;;;18.30;;
63807;SDS011;49961;43.970;22.868;2022-12-10T00:28:46;40.43;;;18.10;;
63807;SDS011;49961;43.970;22.868;2022-12-10T00:29:47;35.47;;;18.10;;
63807;SDS011;49961;43.970;22.868;2022-12-10T00:30:47;42.10;;;18.10;;
63807;SDS011;49961;43.970;22.868;2022-12-10T00:31:48;38.77;;;18.20;;
63807;SDS011;49961;43.970;22.868;2022-12-10T00:32:48;34.00;;;18.10;;
63807;SDS011;49961;43.970;22.868;2022-12-10T00:33:49;49.17;;;19.20;;
63807;SDS011;49961;43.970;22.868;2022-12-10T00:34:50;59.33;;;19.47;;
63807;SDS011;49961;43.970;22.868;2022-12-10T00:35:50;40.87;;;20.03;;
63807;SDS011;49961;43.970;22.868;2022-12-10T00:36:50;37.87;;;18.47;;
63807;SDS011;49961;43.970;22.868;2022-12-10T00:37:51;73.53;;;19.30;;
63807;SDS011;49961;43.970;22.868;2022-12-10T00:38:51;63.07;;;18.47;;
63807;SDS011;49961;43.970;22.868;2022-12-10T00:39:52;41.93;;;18.83;;
63807;SDS011;49961;43.970;22.868;2022-12-10T00:40:53;43.57;;;19.10;;
63807;SDS011;49961;43.970;22.868;2022-12-10T00:41:53;48.63;;;18.73;;
63807;SDS011;49961;43.970;22.868;2022-12-10T00:42:54;41.70;;;18.77;;
63807;SDS011;49961;43.970;22.868;2022-12-10T00:43:54;50.60;;;20.00;;
63807;SDS011;49961;43.970;22.868;2022-12-10T00:44:55;42.83;;;19.33;;
63807;SDS011;49961;43.970;22.868;2022-12-10T00:45:55;35.23;;;18.73;;
63807;SDS011;49961;43.970;22.868;2022-12-10T00:46:56;39.40;;;20.00;;
63807;SDS011;49961;43.970;22.868;2022-12-10T00:47:57;38.47;;;20.17;;
63807;SDS011;49961;43.970;22.868;2022-12-10T00:48:58;39.10;;;19.17;;
63807;SDS011;49961;43.970;22.868;2022-12-10T00:49:59;34.53;;;18.77;;
63807;SDS011;49961;43.970;22.868;2022-12-10T00:51:09;34.03;;;18.93;;
63807;SDS011;49961;43.970;22.868;2022-12-10T00:52:12;37.27;;;18.60;;
63807;SDS011;49961;43.970;22.868;2022-12-10T00:53:12;42.07;;;19.33;;
63807;SDS011;49961;43.970;22.868;2022-12-10T00:54:13;36.40;;;19.17;;
63807;SDS011;49961;43.970;22.868;2022-12-10T00:55:13;47.00;;;19.17;;
63807;SDS011;49961;43.970;22.868;2022-12-10T00:56:15;43.13;;;19.13;;
63807;SDS011;49961;43.970;22.868;2022-12-10T00:57:17;37.60;;;18.43;;
63807;SDS011;49961;43.970;22.868;2022-12-10T00:58:18;45.37;;;19.50;;
63807;SDS011;49961;43.970;22.868;2022-12-10T00:59:18;41.50;;;18.73;;
63807;SDS011;49961;43.970;22.868;2022-12-10T01:00:19;46.73;;;19.47;;
63807;SDS011;49961;43.970;22.868;2022-12-10T01:01:20;55.07;;;18.83;;
63807;SDS011;49961;43.970;22.868;2022-12-10T01:02:25;50.13;;;19.13;;
63807;SDS011;49961;43.970;22.868;2022-12-10T01:03:25;64.10;;;19.07;;
63807;SDS011;49961;43.970;22.868;2022-12-10T01:04:26;52.00;;;19.20;;
63807;SDS011;49961;43.970;22.868;2022-12-10T01:05:26;95.33;;;19.60;;
63807;SDS011;49961;43.970;22.868;2022-12-10T01:06:27;35.43;;;17.97;;
63807;SDS011;49961;43.970;22.868;2022-12-10T01:07:30;40.90;;;18.93;;
63807;SDS011;49961;43.970;22.868;2022-12-10T01:08:30;37.13;;;18.30;;
63807;SDS011;49961;43.970;22.868;2022-12-10T01:09:31;36.70;;;18.67;;
63807;SDS011;49961;43.970;22.868;2022-12-10T01:10:31;35.17;;;18.77;;
63807;SDS011;49961;43.970;22.868;2022-12-10T01:11:34;33.13;;;18.03;;
63807;SDS011;49961;43.970;22.868;2022-12-10T01:12:37;44.67;;;18.73;;
63807;SDS011;49961;43.970;22.868;2022-12-10T01:13:37;158.40;;;19.97;;
63807;SDS011;49961;43.970;22.868;2022-12-10T01:14:38;57.30;;;17.70;;
63807;SDS011;49961;43.970;22.868;2022-12-10T01:15:39;44.77;;;17.63;;
63807;SDS011;49961;43.970;22.868;2022-12-10T01:16:39;44.73;;;17.97;;
63807;SDS011;49961;43.970;22.868;2022-12-10T01:17:40;37.57;;;18.47;;
63807;SDS011;49961;43.970;22.868;2022-12-10T01:18:41;41.30;;;18.77;;
63807;SDS011;49961;43.970;22.868;2022-12-10T01:19:41;41.73;;;19.23;;
63807;SDS011;49961;43.970;22.868;2022-12-10T01:20:42;36.70;;;18.57;;
63807;SDS011;49961;43.970;22.868;2022-12-10T01:21:42;37.07;;;18.77;;
63807;SDS011;49961;43.970;22.868;2022-12-10T01:22:43;36.50;;;18.53;;
63807;SDS011;49961;43.970;22.868;2022-12-10T01:23:44;40.57;;;18.37;;
63807;SDS011;49961;43.970;22.868;2022-12-10T01:24:45;51.27;;;18.47;;
63807;SDS011;49961;43.970;22.868;2022-12-10T01:25:45;56.43;;;18.77;;
63807;SDS011;49961;43.970;22.868;2022-12-10T01:26:46;57.03;;;18.07;;
63807;SDS011;49961;43.970;22.868;2022-12-10T01:27:46;61.63;;;18.70;;
63807;SDS011;49961;43.970;22.868;2022-12-10T01:28:47;49.43;;;17.37;;
63807;SDS011;49961;43.970;22.868;2022-12-10T01:29:48;91.27;;;20.37;;
63807;SDS011;49961;43.970;22.868;2022-12-10T01:30:49;43.20;;;19.63;;
63807;SDS011;49961;43.970;22.868;2022-12-10T01:31:53;37.13;;;17.83;;
63807;SDS011;49961;43.970;22.868;2022-12-10T01:32:54;79.83;;;19.13;;
63807;SDS011;49961;43.970;22.868;2022-12-10T01:33:55;49.37;;;19.50;;
63807;SDS011;49961;43.970;22.868;2022-12-10T01:34:57;40.85;;;17.77;;
63807;SDS011;49961;43.970;22.868;2022-12-10T01:36:02;58.97;;;18.30;;
63807;SDS011;49961;43.970;22.868;2022-12-10T01:37:09;45.60;;;17.90;;
63807;SDS011;49961;43.970;22.868;2022-12-10T01:38:10;45.87;;;18.87;;
63807;SDS011;49961;43.970;22.868;2022-12-10T01:39:13;37.77;;;18.57;;
63807;SDS011;49961;43.970;22.868;2022-12-10T01:40:15;40.95;;;19.15;;
63807;SDS011;49961;43.970;22.868;2022-12-10T01:41:21;51.17;;;18.33;;
63807;SDS011;49961;43.970;22.868;2022-12-10T01:42:24;39.45;;;18.52;;
63807;SDS011;49961;43.970;22.868;2022-12-10T01:43:24;40.33;;;17.90;;
63807;SDS011;49961;43.970;22.868;2022-12-10T01:45:25;56.23;;;18.33;;
63807;SDS011;49961;43.970;22.868;2022-12-10T01:46:28;43.37;;;18.67;;
63807;SDS011;49961;43.970;22.868;2022-12-10T01:47:30;38.30;;;18.97;;
63807;SDS011;49961;43.970;22.868;2022-12-10T01:48:31;45.77;;;19.07;;
63807;SDS011;49961;43.970;22.868;2022-12-10T01:50:33;44.23;;;18.40;;
63807;SDS011;49961;43.970;22.868;2022-12-10T01:51:35;41.17;;;19.27;;
63807;SDS011;49961;43.970;22.868;2022-12-10T01:52:37;38.00;;;17.93;;
63807;SDS011;49961;43.970;22.868;2022-12-10T01:53:38;58.63;;;18.87;;
63807;SDS011;49961;43.970;22.868;2022-12-10T01:54:40;61.47;;;18.43;;
63807;SDS011;49961;43.970;22.868;2022-12-10T01:55:50;55.37;;;17.80;;
63807;SDS011;49961;43.970;22.868;2022-12-10T01:56:54;38.07;;;18.27;;
63807;SDS011;49961;43.970;22.868;2022-12-10T01:57:59;34.40;;;18.47;;
63807;SDS011;49961;43.970;22.868;2022-12-10T01:58:59;37.00;;;18.60;;
63807;SDS011;49961;43.970;22.868;2022-12-10T02:00:03;56.73;;;18.37;;
63807;SDS011;49961;43.970;22.868;2022-12-10T02:01:07;47.73;;;18.57;;
63807;SDS011;49961;43.970;22.868;2022-12-10T02:02:20;43.53;;;18.70;;
63807;SDS011;49961;43.970;22.868;2022-12-10T02:04:02;51.23;;;18.73;;
63807;SDS011;49961;43.970;22.868;2022-12-10T02:05:17;51.20;;;18.43;;
63807;SDS011;49961;43.970;22.868;2022-12-10T02:09:19;47.97;;;17.43;;
63807;SDS011;49961;43.970;22.868;2022-12-10T02:13:14;41.93;;;17.97;;
63807;SDS011;49961;43.970;22.868;2022-12-10T02:15:18;43.83;;;17.53;;
63807;SDS011;49961;43.970;22.868;2022-12-10T02:17:37;45.37;;;18.40;;
63807;SDS011;49961;43.970;22.868;2022-12-10T02:18:54;35.50;;;18.30;;
63807;SDS011;49961;43.970;22.868;2022-12-10T02:20:06;50.70;;;18.63;;
63807;SDS011;49961;43.970;22.868;2022-12-10T02:21:14;44.57;;;19.17;;
63807;SDS011;49961;43.970;22.868;2022-12-10T02:22:19;38.53;;;18.43;;
63807;SDS011;49961;43.970;22.868;2022-12-10T02:24:27;44.07;;;18.70;;
63807;SDS011;49961;43.970;22.868;2022-12-10T02:27:20;84.17;;;18.87;;
63807;SDS011;49961;43.970;22.868;2022-12-10T02:29:48;41.87;;;18.97;;
63807;SDS011;49961;43.970;22.868;2022-12-10T02:30:50;49.43;;;19.03;;
63807;SDS011;49961;43.970;22.868;2022-12-10T02:32:14;44.53;;;19.13;;
63807;SDS011;49961;43.970;22.868;2022-12-10T02:33:37;42.10;;;18.13;;
63807;SDS011;49961;43.970;22.868;2022-12-10T02:34:41;51.03;;;19.63;;
63807;SDS011;49961;43.970;22.868;2022-12-10T02:35:44;45.17;;;18.93;;
63807;SDS011;49961;43.970;22.868;2022-12-10T02:36:50;76.50;;;19.80;;
63807;SDS011;49961;43.970;22.868;2022-12-10T02:39:27;66.83;;;19.20;;
63807;SDS011;49961;43.970;22.868;2022-12-10T02:40:33;92.50;;;19.73;;
63807;SDS011;49961;43.970;22.868;2022-12-10T02:41:37;56.03;;;18.57;;
63807;SDS011;49961;43.970;22.868;2022-12-10T02:42:43;40.83;;;18.67;;
63807;SDS011;49961;43.970;22.868;2022-12-10T02:43:46;41.03;;;19.30;;
63807;SDS011;49961;43.970;22.868;2022-12-10T02:44:50;44.23;;;19.03;;
63807;SDS011;49961;43.970;22.868;2022-12-10T02:45:53;53.43;;;18.70;;
63807;SDS011;49961;43.970;22.868;2022-12-10T02:46:56;41.00;;;18.97;;
63807;SDS011;49961;43.970;22.868;2022-12-10T02:48:00;40.13;;;18.13;;
63807;SDS011;49961;43.970;22.868;2022-12-10T02:49:03;37.70;;;19.37;;
63807;SDS011;49961;43.970;22.868;2022-12-10T02:50:07;40.63;;;18.57;;
63807;SDS011;49961;43.970;22.868;2022-12-10T02:51:09;37.20;;;19.23;;
63807;SDS011;49961;43.970;22.868;2022-12-10T02:52:13;50.73;;;19.57;;
63807;SDS011;49961;43.970;22.868;2022-12-10T02:53:14;42.10;;;20.03;;
63807;SDS011;49961;43.970;22.868;2022-12-10T02:56:58;74.93;;;18.27;;
63807;SDS011;49961;43.970;22.868;2022-12-10T03:00:20;40.70;;;19.70;;
63807;SDS011;49961;43.970;22.868;2022-12-10T03:02:56;38.00;;;19.13;;
63807;SDS011;49961;43.970;22.868;2022-12-10T03:04:16;39.87;;;19.10;;
63807;SDS011;49961;43.970;22.868;2022-12-10T03:06:49;48.63;;;19.87;;
63807;SDS011;49961;43.970;22.868;2022-12-10T03:08:03;47.80;;;19.27;;
63807;SDS011;49961;43.970;22.868;2022-12-10T03:09:23;42.77;;;19.23;;
63807;SDS011;49961;43.970;22.868;2022-12-10T03:10:35;75.90;;;20.40;;
63807;SDS011;49961;43.970;22.868;2022-12-10T03:11:44;46.57;;;20.03;;
63807;SDS011;49961;43.970;22.868;2022-12-10T03:12:47;43.93;;;20.83;;
63807;SDS011;49961;43.970;22.868;2022-12-10T03:15:00;48.17;;;19.67;;
63807;SDS011;49961;43.970;22.868;2022-12-10T03:16:02;50.67;;;21.50;;
63807;SDS011;49961;43.970;22.868;2022-12-10T03:17:04;43.10;;;19.03;;
63807;SDS011;49961;43.970;22.868;2022-12-10T03:18:06;45.47;;;20.70;;
63807;SDS011;49961;43.970;22.868;2022-12-10T03:19:13;42.73;;;21.00;;
63807;SDS011;49961;43.970;22.868;2022-12-10T03:20:17;44.73;;;21.27;;
63807;SDS011;49961;43.970;22.868;2022-12-10T03:21:18;46.53;;;21.33;;
63807;SDS011;49961;43.970;22.868;2022-12-10T03:22:19;51.43;;;21.17;;
63807;SDS011;49961;43.970;22.868;2022-12-10T03:23:20;48.60;;;21.75;;
63807;SDS011;49961;43.970;22.868;2022-12-10T03:24:21;58.33;;;21.17;;
63807;SDS011;49961;43.970;22.868;2022-12-10T03:25:24;78.97;;;22.50;;
63807;SDS011;49961;43.970;22.868;2022-12-10T03:26:26;58.77;;;22.10;;
63807;SDS011;49961;43.970;22.868;2022-12-10T03:27:27;48.23;;;21.50;;
63807;SDS011;49961;43.970;22.868;2022-12-10T03:28:30;78.70;;;21.03;;
63807;SDS011;49961;43.970;22.868;2022-12-10T03:29:45;43.87;;;20.17;;
63807;SDS011;49961;43.970;22.868;2022-12-10T03:32:09;37.73;;;18.80;;
63807;SDS011;49961;43.970;22.868;2022-12-10T03:33:11;38.90;;;19.93;;
63807;SDS011;49961;43.970;22.868;2022-12-10T03:34:12;40.70;;;20.67;;
63807;SDS011;49961;43.970;22.868;2022-12-10T03:35:13;39.70;;;19.97;;
63807;SDS011;49961;43.970;22.868;2022-12-10T03:36:16;37.27;;;19.30;;
63807;SDS011;49961;43.970;22.868;2022-12-10T03:37:19;40.60;;;20.58;;
63807;SDS011;49961;43.970;22.868;2022-12-10T03:38:20;34.87;;;19.00;;
63807;SDS011;49961;43.970;22.868;2022-12-10T03:39:21;38.37;;;20.13;;
63807;SDS011;49961;43.970;22.868;2022-12-10T03:40:22;34.90;;;19.93;;
63807;SDS011;49961;43.970;22.868;2022-12-10T03:41:24;37.93;;;19.50;;
63807;SDS011;49961;43.970;22.868;2022-12-10T03:42:25;36.97;;;19.30;;
63807;SDS011;49961;43.970;22.868;2022-12-10T03:43:25;34.23;;;19.50;;
63807;SDS011;49961;43.970;22.868;2022-12-10T03:44:27;36.30;;;20.30;;
63807;SDS011;49961;43.970;22.868;2022-12-10T03:45:32;34.13;;;18.97;;
63807;SDS011;49961;43.970;22.868;2022-12-10T03:46:32;35.37;;;19.67;;
63807;SDS011;49961;43.970;22.868;2022-12-10T03:47:33;35.80;;;19.33;;
63807;SDS011;49961;43.970;22.868;2022-12-10T03:48:34;39.53;;;21.13;;
63807;SDS011;49961;43.970;22.868;2022-12-10T03:49:34;41.33;;;20.80;;
63807;SDS011;49961;43.970;22.868;2022-12-10T03:50:35;41.20;;;21.27;;
63807;SDS011;49961;43.970;22.868;2022-12-10T03:51:35;41.10;;;20.73;;
63807;SDS011;49961;43.970;22.868;2022-12-10T03:52:35;40.30;;;22.67;;
63807;SDS011;49961;43.970;22.868;2022-12-10T03:53:36;41.30;;;21.93;;
63807;SDS011;49961;43.970;22.868;2022-12-10T03:54:36;40.53;;;21.33;;
63807;SDS011;49961;43.970;22.868;2022-12-10T03:55:37;37.90;;;21.13;;
63807;SDS011;49961;43.970;22.868;2022-12-10T03:56:37;37.20;;;20.60;;
63807;SDS011;49961;43.970;22.868;2022-12-10T03:57:38;40.03;;;20.93;;
63807;SDS011;49961;43.970;22.868;2022-12-10T03:58:38;39.97;;;20.13;;
63807;SDS011;49961;43.970;22.868;2022-12-10T03:59:39;38.17;;;20.77;;
63807;SDS011;49961;43.970;22.868;2022-12-10T04:00:40;40.33;;;20.67;;
63807;SDS011;49961;43.970;22.868;2022-12-10T04:01:40;38.77;;;21.13;;
63807;SDS011;49961;43.970;22.868;2022-12-10T04:02:41;37.27;;;20.93;;
63807;SDS011;49961;43.970;22.868;2022-12-10T04:03:42;39.47;;;21.47;;
63807;SDS011;49961;43.970;22.868;2022-12-10T04:04:42;38.30;;;20.50;;
63807;SDS011;49961;43.970;22.868;2022-12-10T04:05:43;40.57;;;21.97;;
63807;SDS011;49961;43.970;22.868;2022-12-10T04:06:43;40.47;;;21.03;;
63807;SDS011;49961;43.970;22.868;2022-12-10T04:07:44;45.47;;;22.13;;
63807;SDS011;49961;43.970;22.868;2022-12-10T04:08:45;39.03;;;20.63;;
63807;SDS011;49961;43.970;22.868;2022-12-10T04:09:46;42.40;;;22.00;;
63807;SDS011;49961;43.970;22.868;2022-12-10T04:10:46;39.93;;;21.20;;
63807;SDS011;49961;43.970;22.868;2022-12-10T04:11:47;40.00;;;21.60;;
63807;SDS011;49961;43.970;22.868;2022-12-10T04:12:47;39.23;;;21.47;;
63807;SDS011;49961;43.970;22.868;2022-12-10T04:14:08;38.70;;;21.30;;
63807;SDS011;49961;43.970;22.868;2022-12-10T04:15:28;40.23;;;22.00;;
63807;SDS011;49961;43.970;22.868;2022-12-10T04:16:47;43.40;;;22.07;;
63807;SDS011;49961;43.970;22.868;2022-12-10T04:17:48;46.17;;;22.90;;
63807;SDS011;49961;43.970;22.868;2022-12-10T04:18:48;42.03;;;21.90;;
63807;SDS011;49961;43.970;22.868;2022-12-10T04:19:49;43.23;;;21.87;;
63807;SDS011;49961;43.970;22.868;2022-12-10T04:20:49;44.77;;;22.47;;
63807;SDS011;49961;43.970;22.868;2022-12-10T04:22:08;38.97;;;20.50;;
63807;SDS011;49961;43.970;22.868;2022-12-10T04:23:28;44.77;;;21.73;;
63807;SDS011;49961;43.970;22.868;2022-12-10T04:24:47;37.40;;;20.83;;
63807;SDS011;49961;43.970;22.868;2022-12-10T04:26:06;46.97;;;22.13;;
63807;SDS011;49961;43.970;22.868;2022-12-10T04:27:26;42.40;;;20.87;;
63807;SDS011;49961;43.970;22.868;2022-12-10T04:28:29;40.10;;;21.83;;
63807;SDS011;49961;43.970;22.868;2022-12-10T04:29:29;42.03;;;22.30;;
63807;SDS011;49961;43.970;22.868;2022-12-10T04:30:30;39.93;;;22.13;;
63807;SDS011;49961;43.970;22.868;2022-12-10T04:31:31;42.97;;;21.80;;
63807;SDS011;49961;43.970;22.868;2022-12-10T04:32:31;39.30;;;21.43;;
63807;SDS011;49961;43.970;22.868;2022-12-10T04:33:32;40.70;;;22.30;;
63807;SDS011;49961;43.970;22.868;2022-12-10T04:34:33;39.53;;;21.87;;
63807;SDS011;49961;43.970;22.868;2022-12-10T04:35:33;38.20;;;21.37;;
63807;SDS011;49961;43.970;22.868;2022-12-10T04:36:33;39.40;;;22.27;;
63807;SDS011;49961;43.970;22.868;2022-12-10T04:37:34;42.47;;;23.23;;
63807;SDS011;49961;43.970;22.868;2022-12-10T04:38:35;40.53;;;21.67;;
63807;SDS011;49961;43.970;22.868;2022-12-10T04:39:36;39.47;;;22.17;;
63807;SDS011;49961;43.970;22.868;2022-12-10T04:40:37;39.63;;;22.07;;
63807;SDS011;49961;43.970;22.868;2022-12-10T04:41:39;39.80;;;21.80;;
63807;SDS011;49961;43.970;22.868;2022-12-10T04:42:40;41.27;;;22.60;;
63807;SDS011;49961;43.970;22.868;2022-12-10T04:43:41;41.87;;;22.50;;
63807;SDS011;49961;43.970;22.868;2022-12-10T04:44:42;36.30;;;21.23;;
63807;SDS011;49961;43.970;22.868;2022-12-10T04:45:43;41.07;;;21.60;;
63807;SDS011;49961;43.970;22.868;2022-12-10T04:46:43;40.37;;;21.00;;
63807;SDS011;49961;43.970;22.868;2022-12-10T04:47:44;37.83;;;20.93;;
63807;SDS011;49961;43.970;22.868;2022-12-10T04:48:44;37.40;;;21.40;;
63807;SDS011;49961;43.970;22.868;2022-12-10T04:49:45;38.97;;;21.77;;
63807;SDS011;49961;43.970;22.868;2022-12-10T04:50:46;37.80;;;22.40;;
63807;SDS011;49961;43.970;22.868;2022-12-10T04:51:46;38.40;;;21.13;;
63807;SDS011;49961;43.970;22.868;2022-12-10T04:52:47;38.20;;;21.17;;
63807;SDS011;49961;43.970;22.868;2022-12-10T04:53:47;38.53;;;21.23;;
63807;SDS011;49961;43.970;22.868;2022-12-10T04:54:48;36.90;;;22.00;;
63807;SDS011;49961;43.970;22.868;2022-12-10T04:55:48;39.03;;;22.37;;
63807;SDS011;49961;43.970;22.868;2022-12-10T04:56:49;39.33;;;22.60;;
63807;SDS011;49961;43.970;22.868;2022-12-10T04:57:49;39.93;;;21.73;;
63807;SDS011;49961;43.970;22.868;2022-12-10T04:58:50;37.17;;;21.67;;
63807;SDS011;49961;43.970;22.868;2022-12-10T04:59:50;42.20;;;22.30;;
63807;SDS011;49961;43.970;22.868;2022-12-10T05:00:51;39.90;;;20.97;;
63807;SDS011;49961;43.970;22.868;2022-12-10T05:01:51;38.43;;;22.07;;
63807;SDS011;49961;43.970;22.868;2022-12-10T05:02:52;36.33;;;21.37;;
63807;SDS011;49961;43.970;22.868;2022-12-10T05:03:52;37.23;;;21.10;;
63807;SDS011;49961;43.970;22.868;2022-12-10T05:04:53;39.17;;;21.97;;
63807;SDS011;49961;43.970;22.868;2022-12-10T05:05:53;38.80;;;21.43;;
63807;SDS011;49961;43.970;22.868;2022-12-10T05:06:54;40.33;;;21.87;;
63807;SDS011;49961;43.970;22.868;2022-12-10T05:07:54;37.33;;;21.37;;
63807;SDS011;49961;43.970;22.868;2022-12-10T05:08:55;40.10;;;21.27;;
63807;SDS011;49961;43.970;22.868;2022-12-10T05:09:55;36.30;;;21.07;;
63807;SDS011;49961;43.970;22.868;2022-12-10T05:11:00;35.27;;;20.43;;
63807;SDS011;49961;43.970;22.868;2022-12-10T05:12:04;36.27;;;20.17;;
63807;SDS011;49961;43.970;22.868;2022-12-10T05:13:04;43.93;;;22.53;;
63807;SDS011;49961;43.970;22.868;2022-12-10T05:14:05;36.67;;;21.30;;
63807;SDS011;49961;43.970;22.868;2022-12-10T05:15:06;42.73;;;23.00;;
63807;SDS011;49961;43.970;22.868;2022-12-10T05:16:08;42.47;;;22.27;;
63807;SDS011;49961;43.970;22.868;2022-12-10T05:17:10;42.77;;;22.83;;
63807;SDS011;49961;43.970;22.868;2022-12-10T05:18:10;40.93;;;23.00;;
63807;SDS011;49961;43.970;22.868;2022-12-10T05:19:11;46.13;;;22.70;;
63807;SDS011;49961;43.970;22.868;2022-12-10T05:20:11;43.60;;;22.77;;
63807;SDS011;49961;43.970;22.868;2022-12-10T05:21:13;47.80;;;23.63;;
63807;SDS011;49961;43.970;22.868;2022-12-10T05:22:15;48.00;;;23.37;;
63807;SDS011;49961;43.970;22.868;2022-12-10T05:23:37;46.60;;;22.53;;
63807;SDS011;49961;43.970;22.868;2022-12-10T05:24:39;45.00;;;23.20;;
63807;SDS011;49961;43.970;22.868;2022-12-10T05:25:39;42.20;;;22.53;;
63807;SDS011;49961;43.970;22.868;2022-12-10T05:26:56;43.03;;;22.20;;
63807;SDS011;49961;43.970;22.868;2022-12-10T05:27:57;47.93;;;23.87;;
63807;SDS011;49961;43.970;22.868;2022-12-10T05:28:57;50.87;;;24.40;;
63807;SDS011;49961;43.970;22.868;2022-12-10T05:29:57;50.90;;;24.67;;
63807;SDS011;49961;43.970;22.868;2022-12-10T05:30:58;59.43;;;25.67;;
63807;SDS011;49961;43.970;22.868;2022-12-10T05:31:59;48.03;;;24.60;;
63807;SDS011;49961;43.970;22.868;2022-12-10T05:32:59;52.17;;;25.03;;
63807;SDS011;49961;43.970;22.868;2022-12-10T05:34:00;58.73;;;25.30;;
63807;SDS011;49961;43.970;22.868;2022-12-10T05:35:00;52.90;;;25.57;;
63807;SDS011;49961;43.970;22.868;2022-12-10T05:36:02;56.30;;;25.00;;
63807;SDS011;49961;43.970;22.868;2022-12-10T05:37:03;49.37;;;25.27;;
63807;SDS011;49961;43.970;22.868;2022-12-10T05:38:04;52.40;;;25.93;;
63807;SDS011;49961;43.970;22.868;2022-12-10T05:39:05;46.73;;;23.93;;
63807;SDS011;49961;43.970;22.868;2022-12-10T05:40:06;48.97;;;24.57;;
63807;SDS011;49961;43.970;22.868;2022-12-10T05:41:11;52.60;;;25.67;;
63807;SDS011;49961;43.970;22.868;2022-12-10T05:42:14;49.53;;;25.03;;
63807;SDS011;49961;43.970;22.868;2022-12-10T05:43:14;53.63;;;24.97;;
63807;SDS011;49961;43.970;22.868;2022-12-10T05:44:15;50.47;;;25.23;;
63807;SDS011;49961;43.970;22.868;2022-12-10T05:45:15;48.87;;;24.87;;
63807;SDS011;49961;43.970;22.868;2022-12-10T05:46:17;51.77;;;25.27;;
63807;SDS011;49961;43.970;22.868;2022-12-10T05:47:19;63.77;;;25.60;;
63807;SDS011;49961;43.970;22.868;2022-12-10T05:48:19;58.13;;;25.40;;
63807;SDS011;49961;43.970;22.868;2022-12-10T05:49:19;54.17;;;25.60;;
63807;SDS011;49961;43.970;22.868;2022-12-10T05:50:20;55.20;;;25.87;;
63807;SDS011;49961;43.970;22.868;2022-12-10T05:51:24;64.73;;;25.90;;
63807;SDS011;49961;43.970;22.868;2022-12-10T05:52:27;52.80;;;24.87;;
63807;SDS011;49961;43.970;22.868;2022-12-10T05:53:27;53.47;;;25.90;;
63807;SDS011;49961;43.970;22.868;2022-12-10T05:54:28;53.53;;;26.07;;
63807;SDS011;49961;43.970;22.868;2022-12-10T05:55:28;53.30;;;26.13;;
63807;SDS011;49961;43.970;22.868;2022-12-10T05:56:31;56.00;;;27.03;;
63807;SDS011;49961;43.970;22.868;2022-12-10T05:57:32;54.07;;;25.67;;
63807;SDS011;49961;43.970;22.868;2022-12-10T05:58:33;50.83;;;24.53;;
63807;SDS011;49961;43.970;22.868;2022-12-10T05:59:33;57.27;;;25.17;;
63807;SDS011;49961;43.970;22.868;2022-12-10T06:00:34;51.47;;;25.07;;
63807;SDS011;49961;43.970;22.868;2022-12-10T06:01:35;48.80;;;24.90;;
63807;SDS011;49961;43.970;22.868;2022-12-10T06:02:35;46.87;;;23.53;;
63807;SDS011;49961;43.970;22.868;2022-12-10T06:03:36;50.37;;;23.27;;
63807;SDS011;49961;43.970;22.868;2022-12-10T06:04:36;43.97;;;23.27;;
63807;SDS011;49961;43.970;22.868;2022-12-10T06:05:37;49.37;;;25.03;;
63807;SDS011;49961;43.970;22.868;2022-12-10T06:06:39;45.17;;;23.93;;
63807;SDS011;49961;43.970;22.868;2022-12-10T06:07:40;45.73;;;24.27;;
63807;SDS011;49961;43.970;22.868;2022-12-10T06:08:41;48.30;;;24.70;;
63807;SDS011;49961;43.970;22.868;2022-12-10T06:09:41;48.57;;;23.63;;
63807;SDS011;49961;43.970;22.868;2022-12-10T06:10:42;49.33;;;24.30;;
63807;SDS011;49961;43.970;22.868;2022-12-10T06:11:42;48.80;;;24.87;;
63807;SDS011;49961;43.970;22.868;2022-12-10T06:12:43;46.67;;;23.70;;
63807;SDS011;49961;43.970;22.868;2022-12-10T06:13:43;45.77;;;23.87;;
63807;SDS011;49961;43.970;22.868;2022-12-10T06:14:44;49.60;;;24.83;;
63807;SDS011;49961;43.970;22.868;2022-12-10T06:15:44;48.47;;;24.20;;
63807;SDS011;49961;43.970;22.868;2022-12-10T06:16:44;45.67;;;23.63;;
63807;SDS011;49961;43.970;22.868;2022-12-10T06:17:45;46.70;;;24.77;;
63807;SDS011;49961;43.970;22.868;2022-12-10T06:18:45;47.30;;;23.93;;
63807;SDS011;49961;43.970;22.868;2022-12-10T06:19:46;61.10;;;24.43;;
63807;SDS011;49961;43.970;22.868;2022-12-10T06:20:46;59.97;;;24.30;;
63807;SDS011;49961;43.970;22.868;2022-12-10T06:21:47;55.23;;;24.20;;
63807;SDS011;49961;43.970;22.868;2022-12-10T06:22:48;57.33;;;24.37;;
63807;SDS011;49961;43.970;22.868;2022-12-10T06:23:48;73.43;;;25.30;;
63807;SDS011;49961;43.970;22.868;2022-12-10T06:24:51;53.37;;;22.33;;
63807;SDS011;49961;43.970;22.868;2022-12-10T06:25:51;48.63;;;23.70;;
63807;SDS011;49961;43.970;22.868;2022-12-10T06:26:52;48.10;;;23.53;;